sensor_id;sensor_type;location;lat;lon;timestamp;temperature;humidity
19552;DHT22;9921;47.186;9.778;2023-11-22T00:00:13;7.90;99.90
19552;DHT22;9921;47.186;9.778;2023-11-22T00:02:40;7.90;99.90
19552;DHT22;9921;47.186;9.778;2023-11-22T00:05:08;7.90;99.90
19552;DHT22;9921;47.186;9.778;2023-11-22T00:07:36;8.00;99.90
19552;DHT22;9921;47.186;9.778;2023-11-22T00:10:04;7.90;99.90
19552;DHT22;9921;47.186;9.778;2023-11-22T00:12:31;8.00;99.90
19552;DHT22;9921;47.186;9.778;2023-11-22T00:15:03;8.00;99.90
19552;DHT22;9921;47.186;9.778;2023-11-22T00:17:31;8.00;99.90
19552;DHT22;9921;47.186;9.778;2023-11-22T00:19:58;8.00;99.90
19552;DHT22;9921;47.186;9.778;2023-11-22T00:22:27;7.90;99.90
19552;DHT22;9921;47.186;9.778;2023-11-22T00:24:54;7.90;99.90
19552;DHT22;9921;47.186;9.778;2023-11-22T00:27:21;7.90;99.90
19552;DHT22;9921;47.186;9.778;2023-11-22T00:29:47;7.90;99.90
19552;DHT22;9921;47.186;9.778;2023-11-22T00:32:14;7.90;99.90
19552;DHT22;9921;47.186;9.778;2023-11-22T00:34:41;7.90;99.90
19552;DHT22;9921;47.186;9.778;2023-11-22T00:37:08;7.90;99.90
19552;DHT22;9921;47.186;9.778;2023-11-22T00:39:37;7.90;99.90
19552;DHT22;9921;47.186;9.778;2023-11-22T00:42:05;7.90;99.90
19552;DHT22;9921;47.186;9.778;2023-11-22T00:44:32;7.90;99.90
19552;DHT22;9921;47.186;9.778;2023-11-22T00:46:58;7.90;99.90
19552;DHT22;9921;47.186;9.778;2023-11-22T00:49:25;7.90;99.90
19552;DHT22;9921;47.186;9.778;2023-11-22T00:51:52;7.90;99.90
19552;DHT22;9921;47.186;9.778;2023-11-22T00:54:19;7.90;99.90
19552;DHT22;9921;47.186;9.778;2023-11-22T00:56:47;7.90;99.90
19552;DHT22;9921;47.186;9.778;2023-11-22T00:59:14;7.90;99.90
19552;DHT22;9921;47.186;9.778;2023-11-22T01:01:41;8.00;99.90
19552;DHT22;9921;47.186;9.778;2023-11-22T01:04:08;7.90;99.90
19552;DHT22;9921;47.186;9.778;2023-11-22T01:06:35;7.90;99.90
19552;DHT22;9921;47.186;9.778;2023-11-22T01:09:02;7.90;99.90
19552;DHT22;9921;47.186;9.778;2023-11-22T01:11:29;7.80;99.90
19552;DHT22;9921;47.186;9.778;2023-11-22T01:13:57;7.80;99.90
19552;DHT22;9921;47.186;9.778;2023-11-22T01:16:24;7.80;99.90
19552;DHT22;9921;47.186;9.778;2023-11-22T01:18:51;7.80;99.90
19552;DHT22;9921;47.186;9.778;2023-11-22T01:21:18;7.80;99.90
19552;DHT22;9921;47.186;9.778;2023-11-22T01:23:45;7.80;99.90
19552;DHT22;9921;47.186;9.778;2023-11-22T01:26:12;7.80;99.90
19552;DHT22;9921;47.186;9.778;2023-11-22T01:28:39;7.80;99.90
19552;DHT22;9921;47.186;9.778;2023-11-22T01:31:12;7.80;99.90
19552;DHT22;9921;47.186;9.778;2023-11-22T01:33:39;7.80;99.90
19552;DHT22;9921;47.186;9.778;2023-11-22T01:36:06;7.80;99.90
19552;DHT22;9921;47.186;9.778;2023-11-22T01:38:34;7.80;99.90
19552;DHT22;9921;47.186;9.778;2023-11-22T01:41:01;7.80;99.90
19552;DHT22;9921;47.186;9.778;2023-11-22T01:43:28;7.80;99.90
19552;DHT22;9921;47.186;9.778;2023-11-22T01:45:55;7.70;99.90
19552;DHT22;9921;47.186;9.778;2023-11-22T01:48:23;7.80;99.90
19552;DHT22;9921;47.186;9.778;2023-11-22T01:50:51;7.80;99.90
19552;DHT22;9921;47.186;9.778;2023-11-22T01:53:18;7.80;99.90
19552;DHT22;9921;47.186;9.778;2023-11-22T01:55:47;7.80;99.90
19552;DHT22;9921;47.186;9.778;2023-11-22T01:58:15;7.80;99.90
19552;DHT22;9921;47.186;9.778;2023-11-22T02:00:45;7.80;99.90
19552;DHT22;9921;47.186;9.778;2023-11-22T02:03:15;7.80;99.90
19552;DHT22;9921;47.186;9.778;2023-11-22T02:05:44;7.80;99.90
19552;DHT22;9921;47.186;9.778;2023-11-22T02:08:11;7.80;99.90
19552;DHT22;9921;47.186;9.778;2023-11-22T02:10:39;7.80;99.90
19552;DHT22;9921;47.186;9.778;2023-11-22T02:13:06;7.80;99.90
19552;DHT22;9921;47.186;9.778;2023-11-22T02:15:33;7.80;99.90
19552;DHT22;9921;47.186;9.778;2023-11-22T02:18:00;7.80;99.90
19552;DHT22;9921;47.186;9.778;2023-11-22T02:20:27;7.80;99.90
19552;DHT22;9921;47.186;9.778;2023-11-22T02:22:55;7.80;99.90
19552;DHT22;9921;47.186;9.778;2023-11-22T02:25:24;7.80;99.90
19552;DHT22;9921;47.186;9.778;2023-11-22T02:27:50;7.80;99.90
19552;DHT22;9921;47.186;9.778;2023-11-22T02:30:17;7.80;99.90
19552;DHT22;9921;47.186;9.778;2023-11-22T02:32:44;7.80;99.90
19552;DHT22;9921;47.186;9.778;2023-11-22T02:35:11;7.80;99.90
19552;DHT22;9921;47.186;9.778;2023-11-22T02:37:38;7.80;99.90
19552;DHT22;9921;47.186;9.778;2023-11-22T02:40:09;7.80;99.90
19552;DHT22;9921;47.186;9.778;2023-11-22T02:42:40;7.80;99.90
19552;DHT22;9921;47.186;9.778;2023-11-22T02:45:08;7.80;99.90
19552;DHT22;9921;47.186;9.778;2023-11-22T02:47:34;7.80;99.90
19552;DHT22;9921;47.186;9.778;2023-11-22T02:50:02;7.80;99.90
19552;DHT22;9921;47.186;9.778;2023-11-22T02:52:31;7.80;99.90
19552;DHT22;9921;47.186;9.778;2023-11-22T02:54:57;7.80;99.90
19552;DHT22;9921;47.186;9.778;2023-11-22T02:57:24;7.80;99.90
19552;DHT22;9921;47.186;9.778;2023-11-22T02:59:53;7.80;99.90
19552;DHT22;9921;47.186;9.778;2023-11-22T03:02:19;7.80;99.90
19552;DHT22;9921;47.186;9.778;2023-11-22T03:04:46;7.80;99.90
19552;DHT22;9921;47.186;9.778;2023-11-22T03:07:14;7.80;99.90
19552;DHT22;9921;47.186;9.778;2023-11-22T03:09:40;7.80;99.90
19552;DHT22;9921;47.186;9.778;2023-11-22T03:12:09;7.80;99.90
19552;DHT22;9921;47.186;9.778;2023-11-22T03:14:38;7.80;99.90
19552;DHT22;9921;47.186;9.778;2023-11-22T03:17:06;7.80;99.90
19552;DHT22;9921;47.186;9.778;2023-11-22T03:19:33;7.80;99.90
19552;DHT22;9921;47.186;9.778;2023-11-22T03:22:01;7.80;99.90
19552;DHT22;9921;47.186;9.778;2023-11-22T03:24:28;7.80;99.90
19552;DHT22;9921;47.186;9.778;2023-11-22T03:26:56;7.80;99.90
19552;DHT22;9921;47.186;9.778;2023-11-22T03:29:24;7.80;99.90
19552;DHT22;9921;47.186;9.778;2023-11-22T03:31:51;7.80;99.90
19552;DHT22;9921;47.186;9.778;2023-11-22T03:34:20;7.90;99.90
19552;DHT22;9921;47.186;9.778;2023-11-22T03:36:47;7.80;99.90
19552;DHT22;9921;47.186;9.778;2023-11-22T03:39:15;7.90;99.90
19552;DHT22;9921;47.186;9.778;2023-11-22T03:41:42;7.80;99.90
19552;DHT22;9921;47.186;9.778;2023-11-22T03:44:09;7.80;99.90
19552;DHT22;9921;47.186;9.778;2023-11-22T03:46:36;7.80;99.90
19552;DHT22;9921;47.186;9.778;2023-11-22T03:49:03;7.80;99.90
19552;DHT22;9921;47.186;9.778;2023-11-22T03:51:33;7.90;99.90
19552;DHT22;9921;47.186;9.778;2023-11-22T03:54:00;7.80;99.90
19552;DHT22;9921;47.186;9.778;2023-11-22T03:56:29;7.80;99.90
19552;DHT22;9921;47.186;9.778;2023-11-22T03:58:56;7.80;99.90
19552;DHT22;9921;47.186;9.778;2023-11-22T04:01:23;7.90;99.90
19552;DHT22;9921;47.186;9.778;2023-11-22T04:03:50;7.80;99.90
19552;DHT22;9921;47.186;9.778;2023-11-22T04:06:19;7.80;99.90
19552;DHT22;9921;47.186;9.778;2023-11-22T04:08:47;7.80;99.90
19552;DHT22;9921;47.186;9.778;2023-11-22T04:11:14;7.80;99.90
19552;DHT22;9921;47.186;9.778;2023-11-22T04:13:42;7.80;99.90
19552;DHT22;9921;47.186;9.778;2023-11-22T04:16:08;7.80;99.90
19552;DHT22;9921;47.186;9.778;2023-11-22T04:18:37;7.80;99.90
19552;DHT22;9921;47.186;9.778;2023-11-22T04:21:04;7.80;99.90
19552;DHT22;9921;47.186;9.778;2023-11-22T04:23:31;7.70;99.90
19552;DHT22;9921;47.186;9.778;2023-11-22T04:26:00;7.80;99.90
19552;DHT22;9921;47.186;9.778;2023-11-22T04:28:28;7.80;99.90
19552;DHT22;9921;47.186;9.778;2023-11-22T04:30:56;7.80;99.90
19552;DHT22;9921;47.186;9.778;2023-11-22T04:33:23;7.80;99.90
19552;DHT22;9921;47.186;9.778;2023-11-22T04:35:50;7.80;99.90
19552;DHT22;9921;47.186;9.778;2023-11-22T04:38:17;7.80;99.90
19552;DHT22;9921;47.186;9.778;2023-11-22T04:40:44;7.80;99.90
19552;DHT22;9921;47.186;9.778;2023-11-22T04:43:15;7.80;99.90
19552;DHT22;9921;47.186;9.778;2023-11-22T04:45:42;7.80;99.90
19552;DHT22;9921;47.186;9.778;2023-11-22T04:48:09;7.90;99.90
19552;DHT22;9921;47.186;9.778;2023-11-22T04:50:36;7.90;99.90
19552;DHT22;9921;47.186;9.778;2023-11-22T04:53:03;7.90;99.90
19552;DHT22;9921;47.186;9.778;2023-11-22T04:55:30;7.90;99.90
19552;DHT22;9921;47.186;9.778;2023-11-22T04:57:56;7.90;99.90
19552;DHT22;9921;47.186;9.778;2023-11-22T05:00:25;7.90;99.90
19552;DHT22;9921;47.186;9.778;2023-11-22T05:02:52;7.90;99.90
19552;DHT22;9921;47.186;9.778;2023-11-22T05:05:20;7.90;99.90
19552;DHT22;9921;47.186;9.778;2023-11-22T05:07:46;7.90;99.90
19552;DHT22;9921;47.186;9.778;2023-11-22T05:10:13;7.90;99.90
19552;DHT22;9921;47.186;9.778;2023-11-22T05:12:42;7.80;99.90
19552;DHT22;9921;47.186;9.778;2023-11-22T05:15:10;7.80;99.90
19552;DHT22;9921;47.186;9.778;2023-11-22T05:17:38;7.80;99.90
19552;DHT22;9921;47.186;9.778;2023-11-22T05:20:07;7.70;99.90
19552;DHT22;9921;47.186;9.778;2023-11-22T05:22:34;7.60;99.90
19552;DHT22;9921;47.186;9.778;2023-11-22T05:25:01;7.70;99.90
19552;DHT22;9921;47.186;9.778;2023-11-22T05:27:30;7.60;99.90
19552;DHT22;9921;47.186;9.778;2023-11-22T05:29:58;7.60;99.90
19552;DHT22;9921;47.186;9.778;2023-11-22T05:32:26;7.60;99.90
19552;DHT22;9921;47.186;9.778;2023-11-22T05:34:54;7.50;99.90
19552;DHT22;9921;47.186;9.778;2023-11-22T05:37:21;7.50;99.90
19552;DHT22;9921;47.186;9.778;2023-11-22T05:39:48;7.50;99.90
19552;DHT22;9921;47.186;9.778;2023-11-22T05:42:14;7.50;99.90
19552;DHT22;9921;47.186;9.778;2023-11-22T05:44:41;7.50;99.90
19552;DHT22;9921;47.186;9.778;2023-11-22T05:47:08;7.50;99.90
19552;DHT22;9921;47.186;9.778;2023-11-22T05:49:35;7.60;99.90
19552;DHT22;9921;47.186;9.778;2023-11-22T05:52:04;7.60;99.90
19552;DHT22;9921;47.186;9.778;2023-11-22T05:54:31;7.60;99.90
19552;DHT22;9921;47.186;9.778;2023-11-22T05:56:58;7.50;99.90
19552;DHT22;9921;47.186;9.778;2023-11-22T05:59:25;7.50;99.90
19552;DHT22;9921;47.186;9.778;2023-11-22T06:01:52;7.50;99.90
19552;DHT22;9921;47.186;9.778;2023-11-22T06:04:19;7.50;99.90
19552;DHT22;9921;47.186;9.778;2023-11-22T06:06:45;7.50;99.90
19552;DHT22;9921;47.186;9.778;2023-11-22T06:09:14;7.50;99.90
19552;DHT22;9921;47.186;9.778;2023-11-22T06:11:41;7.50;99.90
19552;DHT22;9921;47.186;9.778;2023-11-22T06:14:07;7.50;99.90
19552;DHT22;9921;47.186;9.778;2023-11-22T06:16:34;7.50;99.90
19552;DHT22;9921;47.186;9.778;2023-11-22T06:19:04;7.50;99.90
19552;DHT22;9921;47.186;9.778;2023-11-22T06:21:30;7.50;99.90
19552;DHT22;9921;47.186;9.778;2023-11-22T06:23:57;7.50;99.90
19552;DHT22;9921;47.186;9.778;2023-11-22T06:26:26;7.50;99.90
19552;DHT22;9921;47.186;9.778;2023-11-22T06:28:52;7.50;99.90
19552;DHT22;9921;47.186;9.778;2023-11-22T06:31:21;7.50;99.90
19552;DHT22;9921;47.186;9.778;2023-11-22T06:33:48;7.50;99.90
19552;DHT22;9921;47.186;9.778;2023-11-22T06:36:15;7.50;99.90
19552;DHT22;9921;47.186;9.778;2023-11-22T06:38:41;7.50;99.90
19552;DHT22;9921;47.186;9.778;2023-11-22T06:41:08;7.50;99.90
19552;DHT22;9921;47.186;9.778;2023-11-22T06:43:36;7.50;99.90
19552;DHT22;9921;47.186;9.778;2023-11-22T06:46:03;7.50;99.90
19552;DHT22;9921;47.186;9.778;2023-11-22T06:48:32;7.50;99.90
19552;DHT22;9921;47.186;9.778;2023-11-22T06:50:59;7.50;99.90
19552;DHT22;9921;47.186;9.778;2023-11-22T06:53:26;7.50;99.90
19552;DHT22;9921;47.186;9.778;2023-11-22T06:55:53;7.40;99.90
19552;DHT22;9921;47.186;9.778;2023-11-22T06:58:20;7.40;99.90
19552;DHT22;9921;47.186;9.778;2023-11-22T07:00:48;7.40;99.90
19552;DHT22;9921;47.186;9.778;2023-11-22T07:03:15;7.40;99.90
19552;DHT22;9921;47.186;9.778;2023-11-22T07:05:42;7.40;99.90
19552;DHT22;9921;47.186;9.778;2023-11-22T07:08:09;7.40;99.90
19552;DHT22;9921;47.186;9.778;2023-11-22T07:10:36;7.40;99.90
19552;DHT22;9921;47.186;9.778;2023-11-22T07:13:03;7.40;99.90
19552;DHT22;9921;47.186;9.778;2023-11-22T07:15:30;7.40;99.90
19552;DHT22;9921;47.186;9.778;2023-11-22T07:17:58;7.40;99.90
19552;DHT22;9921;47.186;9.778;2023-11-22T07:20:25;7.40;99.90
19552;DHT22;9921;47.186;9.778;2023-11-22T07:22:52;7.50;99.90
19552;DHT22;9921;47.186;9.778;2023-11-22T07:25:23;7.50;99.90
19552;DHT22;9921;47.186;9.778;2023-11-22T07:27:52;7.50;99.90
19552;DHT22;9921;47.186;9.778;2023-11-22T07:30:19;7.50;99.90
19552;DHT22;9921;47.186;9.778;2023-11-22T07:32:49;7.50;99.90
19552;DHT22;9921;47.186;9.778;2023-11-22T07:35:17;7.50;99.90
19552;DHT22;9921;47.186;9.778;2023-11-22T07:37:46;7.50;99.90
19552;DHT22;9921;47.186;9.778;2023-11-22T07:40:13;7.60;99.90
19552;DHT22;9921;47.186;9.778;2023-11-22T07:42:40;7.60;99.90
19552;DHT22;9921;47.186;9.778;2023-11-22T07:45:09;7.60;99.90
19552;DHT22;9921;47.186;9.778;2023-11-22T07:47:37;7.60;99.90
19552;DHT22;9921;47.186;9.778;2023-11-22T07:50:07;7.60;99.90
19552;DHT22;9921;47.186;9.778;2023-11-22T07:52:36;7.60;99.90
19552;DHT22;9921;47.186;9.778;2023-11-22T07:55:04;7.60;99.90
19552;DHT22;9921;47.186;9.778;2023-11-22T07:57:33;7.60;99.90
19552;DHT22;9921;47.186;9.778;2023-11-22T08:00:00;7.60;99.90
19552;DHT22;9921;47.186;9.778;2023-11-22T08:02:30;7.60;99.90
19552;DHT22;9921;47.186;9.778;2023-11-22T08:04:57;7.60;99.90
19552;DHT22;9921;47.186;9.778;2023-11-22T08:07:27;7.60;99.90
19552;DHT22;9921;47.186;9.778;2023-11-22T08:09:55;7.60;99.90
19552;DHT22;9921;47.186;9.778;2023-11-22T08:12:22;7.50;99.90
19552;DHT22;9921;47.186;9.778;2023-11-22T08:14:49;7.50;99.90
19552;DHT22;9921;47.186;9.778;2023-11-22T08:17:16;7.60;99.90
19552;DHT22;9921;47.186;9.778;2023-11-22T08:19:44;7.50;99.90
19552;DHT22;9921;47.186;9.778;2023-11-22T08:22:13;7.50;99.90
19552;DHT22;9921;47.186;9.778;2023-11-22T08:24:40;7.50;99.90
19552;DHT22;9921;47.186;9.778;2023-11-22T08:27:08;7.40;99.90
19552;DHT22;9921;47.186;9.778;2023-11-22T08:29:35;7.40;99.90
19552;DHT22;9921;47.186;9.778;2023-11-22T08:32:02;7.30;99.90
19552;DHT22;9921;47.186;9.778;2023-11-22T08:34:30;7.20;99.90
19552;DHT22;9921;47.186;9.778;2023-11-22T08:36:57;7.20;99.90
19552;DHT22;9921;47.186;9.778;2023-11-22T08:39:25;7.10;99.90
19552;DHT22;9921;47.186;9.778;2023-11-22T08:41:52;7.00;99.90
19552;DHT22;9921;47.186;9.778;2023-11-22T08:44:21;6.90;99.90
19552;DHT22;9921;47.186;9.778;2023-11-22T08:46:48;6.80;99.90
19552;DHT22;9921;47.186;9.778;2023-11-22T08:49:15;6.70;99.90
19552;DHT22;9921;47.186;9.778;2023-11-22T08:51:42;6.70;99.90
19552;DHT22;9921;47.186;9.778;2023-11-22T08:54:10;6.70;99.90
19552;DHT22;9921;47.186;9.778;2023-11-22T08:56:36;6.60;99.90
19552;DHT22;9921;47.186;9.778;2023-11-22T08:59:03;6.60;99.90
19552;DHT22;9921;47.186;9.778;2023-11-22T09:01:32;6.50;99.90
19552;DHT22;9921;47.186;9.778;2023-11-22T09:03:59;6.50;99.90
19552;DHT22;9921;47.186;9.778;2023-11-22T09:06:26;6.50;99.90
19552;DHT22;9921;47.186;9.778;2023-11-22T09:08:55;6.50;99.90
19552;DHT22;9921;47.186;9.778;2023-11-22T09:11:22;6.40;99.90
19552;DHT22;9921;47.186;9.778;2023-11-22T09:13:50;6.40;99.90
19552;DHT22;9921;47.186;9.778;2023-11-22T09:16:16;6.40;99.90
19552;DHT22;9921;47.186;9.778;2023-11-22T09:18:46;6.40;99.90
19552;DHT22;9921;47.186;9.778;2023-11-22T09:21:14;6.50;99.90
19552;DHT22;9921;47.186;9.778;2023-11-22T09:23:42;6.50;99.90
19552;DHT22;9921;47.186;9.778;2023-11-22T09:26:09;6.50;99.90
19552;DHT22;9921;47.186;9.778;2023-11-22T09:28:36;6.50;99.90
19552;DHT22;9921;47.186;9.778;2023-11-22T09:31:03;6.50;99.90
19552;DHT22;9921;47.186;9.778;2023-11-22T09:33:32;6.50;99.90
19552;DHT22;9921;47.186;9.778;2023-11-22T09:36:00;6.50;99.90
19552;DHT22;9921;47.186;9.778;2023-11-22T09:38:29;6.40;99.90
19552;DHT22;9921;47.186;9.778;2023-11-22T09:40:56;6.40;99.90
19552;DHT22;9921;47.186;9.778;2023-11-22T09:43:25;6.30;99.90
19552;DHT22;9921;47.186;9.778;2023-11-22T09:45:54;6.30;99.90
19552;DHT22;9921;47.186;9.778;2023-11-22T09:48:23;6.30;99.90
19552;DHT22;9921;47.186;9.778;2023-11-22T09:50:56;6.20;99.90
19552;DHT22;9921;47.186;9.778;2023-11-22T09:53:31;6.20;99.90
19552;DHT22;9921;47.186;9.778;2023-11-22T09:56:00;6.30;99.90
19552;DHT22;9921;47.186;9.778;2023-11-22T09:58:30;6.20;99.90
19552;DHT22;9921;47.186;9.778;2023-11-22T10:00:57;6.20;99.90
19552;DHT22;9921;47.186;9.778;2023-11-22T10:03:25;6.20;99.90
19552;DHT22;9921;47.186;9.778;2023-11-22T10:05:55;6.20;99.90
19552;DHT22;9921;47.186;9.778;2023-11-22T10:08:23;6.10;99.90
19552;DHT22;9921;47.186;9.778;2023-11-22T10:10:51;6.20;99.90
19552;DHT22;9921;47.186;9.778;2023-11-22T10:13:19;6.20;99.90
19552;DHT22;9921;47.186;9.778;2023-11-22T10:15:47;6.30;99.90
19552;DHT22;9921;47.186;9.778;2023-11-22T10:18:14;6.20;99.90
19552;DHT22;9921;47.186;9.778;2023-11-22T10:20:44;6.20;99.90
19552;DHT22;9921;47.186;9.778;2023-11-22T10:23:13;6.20;99.90
19552;DHT22;9921;47.186;9.778;2023-11-22T10:25:44;6.20;99.90
19552;DHT22;9921;47.186;9.778;2023-11-22T10:28:14;6.20;99.90
19552;DHT22;9921;47.186;9.778;2023-11-22T10:30:41;6.20;99.90
19552;DHT22;9921;47.186;9.778;2023-11-22T10:33:09;6.10;99.90
19552;DHT22;9921;47.186;9.778;2023-11-22T10:35:39;6.10;99.90
19552;DHT22;9921;47.186;9.778;2023-11-22T10:38:08;6.10;99.90
19552;DHT22;9921;47.186;9.778;2023-11-22T10:40:36;6.10;99.90
19552;DHT22;9921;47.186;9.778;2023-11-22T10:43:03;6.10;99.90
19552;DHT22;9921;47.186;9.778;2023-11-22T10:45:32;6.10;99.90
19552;DHT22;9921;47.186;9.778;2023-11-22T10:48:00;6.10;99.90
19552;DHT22;9921;47.186;9.778;2023-11-22T10:50:27;6.10;99.90
19552;DHT22;9921;47.186;9.778;2023-11-22T10:52:57;6.10;99.90
19552;DHT22;9921;47.186;9.778;2023-11-22T10:55:27;6.10;99.90
19552;DHT22;9921;47.186;9.778;2023-11-22T10:57:56;6.10;99.90
19552;DHT22;9921;47.186;9.778;2023-11-22T11:00:25;6.10;99.90
19552;DHT22;9921;47.186;9.778;2023-11-22T11:02:59;6.10;99.90
19552;DHT22;9921;47.186;9.778;2023-11-22T11:05:30;6.10;99.90
19552;DHT22;9921;47.186;9.778;2023-11-22T11:08:00;6.10;99.90
19552;DHT22;9921;47.186;9.778;2023-11-22T11:10:29;6.10;99.90
19552;DHT22;9921;47.186;9.778;2023-11-22T11:12:57;6.10;99.90
19552;DHT22;9921;47.186;9.778;2023-11-22T11:15:24;6.20;99.90
19552;DHT22;9921;47.186;9.778;2023-11-22T11:17:54;6.10;99.90
19552;DHT22;9921;47.186;9.778;2023-11-22T11:20:23;6.10;99.90
19552;DHT22;9921;47.186;9.778;2023-11-22T11:22:50;6.20;99.90
19552;DHT22;9921;47.186;9.778;2023-11-22T11:25:18;6.10;99.90
19552;DHT22;9921;47.186;9.778;2023-11-22T11:27:55;6.20;99.90
19552;DHT22;9921;47.186;9.778;2023-11-22T11:30:49;6.20;99.90
19552;DHT22;9921;47.186;9.778;2023-11-22T11:33:26;6.30;99.90
19552;DHT22;9921;47.186;9.778;2023-11-22T11:35:56;6.30;99.90
19552;DHT22;9921;47.186;9.778;2023-11-22T11:38:30;6.30;99.90
19552;DHT22;9921;47.186;9.778;2023-11-22T11:41:06;6.40;99.90
19552;DHT22;9921;47.186;9.778;2023-11-22T11:43:40;6.50;99.90
19552;DHT22;9921;47.186;9.778;2023-11-22T11:46:07;6.50;99.90
19552;DHT22;9921;47.186;9.778;2023-11-22T11:48:36;6.60;99.90
19552;DHT22;9921;47.186;9.778;2023-11-22T11:51:03;6.70;99.90
19552;DHT22;9921;47.186;9.778;2023-11-22T11:53:32;6.70;99.90
19552;DHT22;9921;47.186;9.778;2023-11-22T11:56:01;6.80;99.90
19552;DHT22;9921;47.186;9.778;2023-11-22T11:58:28;6.80;99.90
19552;DHT22;9921;47.186;9.778;2023-11-22T12:00:55;6.90;99.90
19552;DHT22;9921;47.186;9.778;2023-11-22T12:03:23;6.90;99.90
19552;DHT22;9921;47.186;9.778;2023-11-22T12:05:51;7.00;99.90
19552;DHT22;9921;47.186;9.778;2023-11-22T12:08:18;7.00;99.90
19552;DHT22;9921;47.186;9.778;2023-11-22T12:10:45;7.00;99.90
19552;DHT22;9921;47.186;9.778;2023-11-22T12:13:17;7.00;99.90
19552;DHT22;9921;47.186;9.778;2023-11-22T12:15:43;7.00;99.90
19552;DHT22;9921;47.186;9.778;2023-11-22T12:18:10;7.10;99.90
19552;DHT22;9921;47.186;9.778;2023-11-22T12:20:38;7.10;99.90
19552;DHT22;9921;47.186;9.778;2023-11-22T12:23:07;7.10;99.90
19552;DHT22;9921;47.186;9.778;2023-11-22T12:25:35;7.10;99.90
19552;DHT22;9921;47.186;9.778;2023-11-22T12:28:02;7.00;99.90
19552;DHT22;9921;47.186;9.778;2023-11-22T12:30:31;7.00;99.90
19552;DHT22;9921;47.186;9.778;2023-11-22T12:33:00;7.00;99.90
19552;DHT22;9921;47.186;9.778;2023-11-22T12:35:30;7.00;99.90
19552;DHT22;9921;47.186;9.778;2023-11-22T12:37:58;6.90;99.90
19552;DHT22;9921;47.186;9.778;2023-11-22T12:40:27;6.90;99.90
19552;DHT22;9921;47.186;9.778;2023-11-22T12:42:57;6.90;99.90
19552;DHT22;9921;47.186;9.778;2023-11-22T12:45:25;6.90;99.90
19552;DHT22;9921;47.186;9.778;2023-11-22T12:47:54;6.80;99.90
19552;DHT22;9921;47.186;9.778;2023-11-22T12:50:34;6.80;99.90
19552;DHT22;9921;47.186;9.778;2023-11-22T12:53:10;6.80;99.90
19552;DHT22;9921;47.186;9.778;2023-11-22T12:55:41;6.80;99.90
19552;DHT22;9921;47.186;9.778;2023-11-22T12:58:09;6.80;99.90
19552;DHT22;9921;47.186;9.778;2023-11-22T13:00:36;6.80;99.90
19552;DHT22;9921;47.186;9.778;2023-11-22T13:03:05;6.80;99.90
19552;DHT22;9921;47.186;9.778;2023-11-22T13:05:32;6.80;99.90
19552;DHT22;9921;47.186;9.778;2023-11-22T13:07:59;6.70;99.90
19552;DHT22;9921;47.186;9.778;2023-11-22T13:10:26;6.70;99.90
19552;DHT22;9921;47.186;9.778;2023-11-22T13:12:54;6.70;99.90
19552;DHT22;9921;47.186;9.778;2023-11-22T13:15:22;6.70;99.90
19552;DHT22;9921;47.186;9.778;2023-11-22T13:17:51;6.80;99.90
19552;DHT22;9921;47.186;9.778;2023-11-22T13:20:21;6.80;99.90
19552;DHT22;9921;47.186;9.778;2023-11-22T13:22:48;6.80;99.90
19552;DHT22;9921;47.186;9.778;2023-11-22T13:25:15;6.90;99.90
19552;DHT22;9921;47.186;9.778;2023-11-22T13:27:44;7.00;99.90
19552;DHT22;9921;47.186;9.778;2023-11-22T13:30:14;7.10;99.90
19552;DHT22;9921;47.186;9.778;2023-11-22T13:32:41;7.20;99.90
19552;DHT22;9921;47.186;9.778;2023-11-22T13:35:08;7.20;99.90
19552;DHT22;9921;47.186;9.778;2023-11-22T13:37:41;7.20;99.90
19552;DHT22;9921;47.186;9.778;2023-11-22T13:40:10;7.30;99.90
19552;DHT22;9921;47.186;9.778;2023-11-22T13:42:41;7.40;99.90
19552;DHT22;9921;47.186;9.778;2023-11-22T13:45:08;7.50;99.90
19552;DHT22;9921;47.186;9.778;2023-11-22T13:47:36;7.60;99.90
19552;DHT22;9921;47.186;9.778;2023-11-22T13:50:04;7.60;99.90
19552;DHT22;9921;47.186;9.778;2023-11-22T13:52:32;7.60;99.90
19552;DHT22;9921;47.186;9.778;2023-11-22T13:54:59;7.60;99.90
19552;DHT22;9921;47.186;9.778;2023-11-22T13:57:27;7.60;99.90
19552;DHT22;9921;47.186;9.778;2023-11-22T13:59:54;7.50;99.90
19552;DHT22;9921;47.186;9.778;2023-11-22T14:02:20;7.50;99.90
19552;DHT22;9921;47.186;9.778;2023-11-22T14:04:49;7.50;99.90
19552;DHT22;9921;47.186;9.778;2023-11-22T14:07:16;7.40;99.90
19552;DHT22;9921;47.186;9.778;2023-11-22T14:09:43;7.40;99.90
19552;DHT22;9921;47.186;9.778;2023-11-22T14:12:12;7.30;99.90
19552;DHT22;9921;47.186;9.778;2023-11-22T14:14:39;7.30;99.90
19552;DHT22;9921;47.186;9.778;2023-11-22T14:17:05;7.20;99.90
19552;DHT22;9921;47.186;9.778;2023-11-22T14:19:32;7.10;99.90
19552;DHT22;9921;47.186;9.778;2023-11-22T14:22:00;7.10;99.90
19552;DHT22;9921;47.186;9.778;2023-11-22T14:24:27;7.00;99.90
19552;DHT22;9921;47.186;9.778;2023-11-22T14:26:55;7.00;99.90
19552;DHT22;9921;47.186;9.778;2023-11-22T14:29:26;6.90;99.90
19552;DHT22;9921;47.186;9.778;2023-11-22T14:31:52;6.80;99.90
19552;DHT22;9921;47.186;9.778;2023-11-22T14:34:19;6.80;99.90
19552;DHT22;9921;47.186;9.778;2023-11-22T14:36:46;6.80;99.90
19552;DHT22;9921;47.186;9.778;2023-11-22T14:39:14;6.80;99.90
19552;DHT22;9921;47.186;9.778;2023-11-22T14:41:41;6.70;99.90
19552;DHT22;9921;47.186;9.778;2023-11-22T14:44:10;6.70;99.90
19552;DHT22;9921;47.186;9.778;2023-11-22T14:46:38;6.60;99.90
19552;DHT22;9921;47.186;9.778;2023-11-22T14:49:05;6.60;99.90
19552;DHT22;9921;47.186;9.778;2023-11-22T14:51:33;6.60;99.90
19552;DHT22;9921;47.186;9.778;2023-11-22T14:54:00;6.50;99.90
19552;DHT22;9921;47.186;9.778;2023-11-22T14:56:28;6.40;99.90
19552;DHT22;9921;47.186;9.778;2023-11-22T14:58:55;6.40;99.90
19552;DHT22;9921;47.186;9.778;2023-11-22T15:01:22;6.30;99.90
19552;DHT22;9921;47.186;9.778;2023-11-22T15:03:50;6.30;99.90
19552;DHT22;9921;47.186;9.778;2023-11-22T15:06:19;6.20;99.90
19552;DHT22;9921;47.186;9.778;2023-11-22T15:08:46;6.20;99.90
19552;DHT22;9921;47.186;9.778;2023-11-22T15:11:13;6.10;99.90
19552;DHT22;9921;47.186;9.778;2023-11-22T15:13:42;6.10;99.90
19552;DHT22;9921;47.186;9.778;2023-11-22T15:16:09;6.10;99.90
19552;DHT22;9921;47.186;9.778;2023-11-22T15:18:38;6.10;99.90
19552;DHT22;9921;47.186;9.778;2023-11-22T15:21:05;6.10;99.90
19552;DHT22;9921;47.186;9.778;2023-11-22T15:23:32;6.10;99.90
19552;DHT22;9921;47.186;9.778;2023-11-22T15:25:59;6.10;99.90
19552;DHT22;9921;47.186;9.778;2023-11-22T15:28:26;6.00;99.90
19552;DHT22;9921;47.186;9.778;2023-11-22T15:30:54;6.00;99.90
19552;DHT22;9921;47.186;9.778;2023-11-22T15:33:24;6.00;99.90
19552;DHT22;9921;47.186;9.778;2023-11-22T15:35:51;6.10;99.90
19552;DHT22;9921;47.186;9.778;2023-11-22T15:38:19;6.10;99.90
19552;DHT22;9921;47.186;9.778;2023-11-22T15:40:50;6.10;99.90
19552;DHT22;9921;47.186;9.778;2023-11-22T15:43:17;6.10;99.90
19552;DHT22;9921;47.186;9.778;2023-11-22T15:45:44;6.00;99.90
19552;DHT22;9921;47.186;9.778;2023-11-22T15:48:12;6.00;99.90
19552;DHT22;9921;47.186;9.778;2023-11-22T15:50:40;6.00;99.90
19552;DHT22;9921;47.186;9.778;2023-11-22T15:53:07;6.00;99.90
19552;DHT22;9921;47.186;9.778;2023-11-22T15:55:38;6.00;99.90
19552;DHT22;9921;47.186;9.778;2023-11-22T15:58:06;6.00;99.90
19552;DHT22;9921;47.186;9.778;2023-11-22T16:00:32;6.00;99.90
19552;DHT22;9921;47.186;9.778;2023-11-22T16:02:59;6.00;99.90
19552;DHT22;9921;47.186;9.778;2023-11-22T16:05:28;6.00;99.90